sensor_id;sensor_type;location;lat;lon;timestamp;temperature;humidity
62581;DHT22;48640;48.770;9.148;2023-02-07T00:01:31;1.70;97.20
62581;DHT22;48640;48.770;9.148;2023-02-07T00:03:59;1.60;96.40
62581;DHT22;48640;48.770;9.148;2023-02-07T00:06:29;1.50;95.80
62581;DHT22;48640;48.770;9.148;2023-02-07T00:08:58;1.40;95.20
62581;DHT22;48640;48.770;9.148;2023-02-07T00:11:25;1.20;94.60
62581;DHT22;48640;48.770;9.148;2023-02-07T00:13:53;1.10;94.40
62581;DHT22;48640;48.770;9.148;2023-02-07T00:16:21;1.00;94.40
62581;DHT22;48640;48.770;9.148;2023-02-07T00:18:49;0.90;94.50
62581;DHT22;48640;48.770;9.148;2023-02-07T00:21:19;0.90;95.10
62581;DHT22;48640;48.770;9.148;2023-02-07T00:23:47;0.80;94.80
62581;DHT22;48640;48.770;9.148;2023-02-07T00:26:15;0.70;94.70
62581;DHT22;48640;48.770;9.148;2023-02-07T00:28:43;0.60;94.70
62581;DHT22;48640;48.770;9.148;2023-02-07T00:31:12;0.60;94.90
62581;DHT22;48640;48.770;9.148;2023-02-07T00:33:40;0.50;94.60
62581;DHT22;48640;48.770;9.148;2023-02-07T00:36:09;0.50;94.40
62581;DHT22;48640;48.770;9.148;2023-02-07T00:38:38;0.50;94.40
62581;DHT22;48640;48.770;9.148;2023-02-07T00:41:05;0.50;94.20
62581;DHT22;48640;48.770;9.148;2023-02-07T00:43:32;0.50;94.30
62581;DHT22;48640;48.770;9.148;2023-02-07T00:46:01;0.50;94.00
62581;DHT22;48640;48.770;9.148;2023-02-07T00:48:30;0.40;94.20
62581;DHT22;48640;48.770;9.148;2023-02-07T00:50:57;0.30;94.00
62581;DHT22;48640;48.770;9.148;2023-02-07T00:53:26;0.30;94.00
62581;DHT22;48640;48.770;9.148;2023-02-07T00:55:54;0.30;93.80
62581;DHT22;48640;48.770;9.148;2023-02-07T00:58:21;0.30;93.60
62581;DHT22;48640;48.770;9.148;2023-02-07T01:00:48;0.30;93.60
62581;DHT22;48640;48.770;9.148;2023-02-07T01:03:15;0.30;93.10
62581;DHT22;48640;48.770;9.148;2023-02-07T01:05:42;0.40;93.30
62581;DHT22;48640;48.770;9.148;2023-02-07T01:08:09;0.40;93.40
62581;DHT22;48640;48.770;9.148;2023-02-07T01:10:38;0.40;93.90
62581;DHT22;48640;48.770;9.148;2023-02-07T01:13:06;0.40;94.20
62581;DHT22;48640;48.770;9.148;2023-02-07T01:15:35;0.30;94.50
62581;DHT22;48640;48.770;9.148;2023-02-07T01:18:03;0.20;94.60
62581;DHT22;48640;48.770;9.148;2023-02-07T01:20:30;0.10;94.90
62581;DHT22;48640;48.770;9.148;2023-02-07T01:22:57;0.00;95.30
62581;DHT22;48640;48.770;9.148;2023-02-07T01:25:23;-0.10;95.50
62581;DHT22;48640;48.770;9.148;2023-02-07T01:27:50;-0.10;95.90
62581;DHT22;48640;48.770;9.148;2023-02-07T01:30:19;-0.10;95.90
62581;DHT22;48640;48.770;9.148;2023-02-07T01:32:46;-0.20;96.00
62581;DHT22;48640;48.770;9.148;2023-02-07T01:35:12;-0.20;96.20
62581;DHT22;48640;48.770;9.148;2023-02-07T01:37:39;-0.20;96.30
62581;DHT22;48640;48.770;9.148;2023-02-07T01:40:07;-0.20;96.50
62581;DHT22;48640;48.770;9.148;2023-02-07T01:42:34;-0.20;96.70
62581;DHT22;48640;48.770;9.148;2023-02-07T01:45:07;-0.20;96.50
62581;DHT22;48640;48.770;9.148;2023-02-07T01:47:38;-0.30;96.60
62581;DHT22;48640;48.770;9.148;2023-02-07T01:50:05;-0.30;96.80
62581;DHT22;48640;48.770;9.148;2023-02-07T01:52:36;-0.30;96.80
62581;DHT22;48640;48.770;9.148;2023-02-07T01:55:08;-0.30;96.80
62581;DHT22;48640;48.770;9.148;2023-02-07T01:57:36;-0.20;96.80
62581;DHT22;48640;48.770;9.148;2023-02-07T02:00:05;0.00;96.80
62581;DHT22;48640;48.770;9.148;2023-02-07T02:02:35;0.00;96.00
62581;DHT22;48640;48.770;9.148;2023-02-07T02:05:05;0.00;96.10
62581;DHT22;48640;48.770;9.148;2023-02-07T02:07:33;-0.20;96.20
62581;DHT22;48640;48.770;9.148;2023-02-07T02:10:01;-0.20;96.20
62581;DHT22;48640;48.770;9.148;2023-02-07T02:12:42;-0.40;96.00
62581;DHT22;48640;48.770;9.148;2023-02-07T02:15:30;-0.40;96.30
62581;DHT22;48640;48.770;9.148;2023-02-07T02:18:07;-0.50;96.30
62581;DHT22;48640;48.770;9.148;2023-02-07T02:23:59;-0.60;96.30
62581;DHT22;48640;48.770;9.148;2023-02-07T02:26:54;-0.60;96.50
62581;DHT22;48640;48.770;9.148;2023-02-07T02:29:52;-0.60;96.30
62581;DHT22;48640;48.770;9.148;2023-02-07T02:32:49;-0.70;96.40
62581;DHT22;48640;48.770;9.148;2023-02-07T02:35:21;-0.70;96.30
62581;DHT22;48640;48.770;9.148;2023-02-07T02:37:55;-0.70;96.20
62581;DHT22;48640;48.770;9.148;2023-02-07T02:40:30;-0.70;96.30
62581;DHT22;48640;48.770;9.148;2023-02-07T02:43:04;-0.70;96.20
62581;DHT22;48640;48.770;9.148;2023-02-07T02:45:34;-0.80;96.20
62581;DHT22;48640;48.770;9.148;2023-02-07T02:48:05;-0.80;96.00
62581;DHT22;48640;48.770;9.148;2023-02-07T02:50:34;-0.80;96.00
62581;DHT22;48640;48.770;9.148;2023-02-07T02:53:01;-0.80;95.90
62581;DHT22;48640;48.770;9.148;2023-02-07T02:55:43;-0.80;95.60
62581;DHT22;48640;48.770;9.148;2023-02-07T02:58:22;-0.80;95.60
62581;DHT22;48640;48.770;9.148;2023-02-07T03:01:02;-0.80;95.60
62581;DHT22;48640;48.770;9.148;2023-02-07T03:03:43;-0.80;95.70
62581;DHT22;48640;48.770;9.148;2023-02-07T03:06:21;-0.80;95.60
62581;DHT22;48640;48.770;9.148;2023-02-07T03:08:59;-0.90;95.20
62581;DHT22;48640;48.770;9.148;2023-02-07T03:11:30;-0.90;95.20
62581;DHT22;48640;48.770;9.148;2023-02-07T03:14:06;-0.90;95.20
62581;DHT22;48640;48.770;9.148;2023-02-07T03:16:40;-0.90;95.00
62581;DHT22;48640;48.770;9.148;2023-02-07T03:19:12;-0.90;95.00
62581;DHT22;48640;48.770;9.148;2023-02-07T03:21:42;-0.90;95.10
62581;DHT22;48640;48.770;9.148;2023-02-07T03:24:12;-0.90;95.10
62581;DHT22;48640;48.770;9.148;2023-02-07T03:26:41;-0.90;95.10
62581;DHT22;48640;48.770;9.148;2023-02-07T03:29:11;-0.90;95.10
62581;DHT22;48640;48.770;9.148;2023-02-07T03:31:40;-0.90;95.10
62581;DHT22;48640;48.770;9.148;2023-02-07T03:34:13;-0.90;95.10
62581;DHT22;48640;48.770;9.148;2023-02-07T03:36:52;-0.90;95.00
62581;DHT22;48640;48.770;9.148;2023-02-07T03:39:20;-1.00;94.90
62581;DHT22;48640;48.770;9.148;2023-02-07T03:41:50;-1.00;95.00
62581;DHT22;48640;48.770;9.148;2023-02-07T03:44:20;-1.00;95.00
62581;DHT22;48640;48.770;9.148;2023-02-07T03:46:49;-1.00;95.10
62581;DHT22;48640;48.770;9.148;2023-02-07T03:49:17;-1.00;95.20
62581;DHT22;48640;48.770;9.148;2023-02-07T03:51:44;-0.90;95.40
62581;DHT22;48640;48.770;9.148;2023-02-07T03:54:11;-0.90;95.10
62581;DHT22;48640;48.770;9.148;2023-02-07T03:56:38;-0.90;95.20
62581;DHT22;48640;48.770;9.148;2023-02-07T03:59:05;-0.90;94.40
62581;DHT22;48640;48.770;9.148;2023-02-07T04:01:32;-0.90;94.40
62581;DHT22;48640;48.770;9.148;2023-02-07T04:04:05;-0.90;94.50
62581;DHT22;48640;48.770;9.148;2023-02-07T04:06:33;-1.00;94.60
62581;DHT22;48640;48.770;9.148;2023-02-07T04:09:00;-1.00;94.80
62581;DHT22;48640;48.770;9.148;2023-02-07T04:11:27;-1.00;94.60
62581;DHT22;48640;48.770;9.148;2023-02-07T04:13:53;-0.90;94.10
62581;DHT22;48640;48.770;9.148;2023-02-07T04:16:21;-0.90;93.90
62581;DHT22;48640;48.770;9.148;2023-02-07T04:18:48;-1.00;94.00
62581;DHT22;48640;48.770;9.148;2023-02-07T04:21:15;-1.00;94.00
62581;DHT22;48640;48.770;9.148;2023-02-07T04:23:43;-1.00;94.10
62581;DHT22;48640;48.770;9.148;2023-02-07T04:26:10;-0.90;94.10
62581;DHT22;48640;48.770;9.148;2023-02-07T04:28:36;-1.00;93.80
62581;DHT22;48640;48.770;9.148;2023-02-07T04:31:03;-1.00;94.30
62581;DHT22;48640;48.770;9.148;2023-02-07T04:33:30;-1.10;95.00
62581;DHT22;48640;48.770;9.148;2023-02-07T04:35:59;-1.10;95.30
62581;DHT22;48640;48.770;9.148;2023-02-07T04:38:27;-1.10;95.40
62581;DHT22;48640;48.770;9.148;2023-02-07T04:40:58;-1.10;95.70
62581;DHT22;48640;48.770;9.148;2023-02-07T04:43:27;-1.10;95.30
62581;DHT22;48640;48.770;9.148;2023-02-07T04:45:54;-1.10;94.70
62581;DHT22;48640;48.770;9.148;2023-02-07T04:48:21;-1.10;94.90
62581;DHT22;48640;48.770;9.148;2023-02-07T04:50:48;-1.20;95.10
62581;DHT22;48640;48.770;9.148;2023-02-07T04:53:15;-1.20;95.30
62581;DHT22;48640;48.770;9.148;2023-02-07T04:55:42;-1.10;95.00
62581;DHT22;48640;48.770;9.148;2023-02-07T04:58:10;-1.20;94.70
62581;DHT22;48640;48.770;9.148;2023-02-07T05:00:37;-1.20;94.80
62581;DHT22;48640;48.770;9.148;2023-02-07T05:03:03;-1.10;94.20
62581;DHT22;48640;48.770;9.148;2023-02-07T05:05:30;-1.10;94.10
62581;DHT22;48640;48.770;9.148;2023-02-07T05:07:57;-1.10;93.80
62581;DHT22;48640;48.770;9.148;2023-02-07T05:10:24;-1.10;93.70
62581;DHT22;48640;48.770;9.148;2023-02-07T05:12:51;-1.10;94.00
62581;DHT22;48640;48.770;9.148;2023-02-07T05:15:19;-1.10;93.70
62581;DHT22;48640;48.770;9.148;2023-02-07T05:17:46;-0.90;93.50
62581;DHT22;48640;48.770;9.148;2023-02-07T05:20:13;-1.00;92.80
62581;DHT22;48640;48.770;9.148;2023-02-07T05:22:40;-1.10;92.80
62581;DHT22;48640;48.770;9.148;2023-02-07T05:25:07;-1.20;93.10
62581;DHT22;48640;48.770;9.148;2023-02-07T05:27:33;-1.20;93.20
62581;DHT22;48640;48.770;9.148;2023-02-07T05:30:01;-1.20;93.30
62581;DHT22;48640;48.770;9.148;2023-02-07T05:32:29;-1.20;93.70
62581;DHT22;48640;48.770;9.148;2023-02-07T05:35:18;-1.10;94.00
62581;DHT22;48640;48.770;9.148;2023-02-07T05:37:45;-1.10;93.80
62581;DHT22;48640;48.770;9.148;2023-02-07T05:40:12;-0.90;93.60
62581;DHT22;48640;48.770;9.148;2023-02-07T05:42:39;-0.90;93.20
62581;DHT22;48640;48.770;9.148;2023-02-07T05:45:07;-1.10;93.30
62581;DHT22;48640;48.770;9.148;2023-02-07T05:47:35;-1.30;93.80
62581;DHT22;48640;48.770;9.148;2023-02-07T05:50:02;-1.30;93.70
62581;DHT22;48640;48.770;9.148;2023-02-07T05:52:29;-1.40;93.70
62581;DHT22;48640;48.770;9.148;2023-02-07T05:54:55;-1.40;93.70
62581;DHT22;48640;48.770;9.148;2023-02-07T05:57:22;-1.40;93.30
62581;DHT22;48640;48.770;9.148;2023-02-07T05:59:49;-1.40;93.40
62581;DHT22;48640;48.770;9.148;2023-02-07T06:02:16;-1.30;93.30
62581;DHT22;48640;48.770;9.148;2023-02-07T06:04:44;-1.30;92.90
62581;DHT22;48640;48.770;9.148;2023-02-07T06:07:11;-1.30;92.70
62581;DHT22;48640;48.770;9.148;2023-02-07T06:09:37;-1.30;92.60
62581;DHT22;48640;48.770;9.148;2023-02-07T06:12:05;-1.20;92.60
62581;DHT22;48640;48.770;9.148;2023-02-07T06:14:32;-1.20;92.60
62581;DHT22;48640;48.770;9.148;2023-02-07T06:16:58;-1.20;92.60
62581;DHT22;48640;48.770;9.148;2023-02-07T06:19:25;-1.30;91.90
62581;DHT22;48640;48.770;9.148;2023-02-07T06:21:53;-1.20;91.90
62581;DHT22;48640;48.770;9.148;2023-02-07T06:24:20;-1.30;91.60
62581;DHT22;48640;48.770;9.148;2023-02-07T06:26:48;-1.30;91.10
62581;DHT22;48640;48.770;9.148;2023-02-07T06:29:15;-1.30;91.30
62581;DHT22;48640;48.770;9.148;2023-02-07T06:31:42;-1.30;91.20
62581;DHT22;48640;48.770;9.148;2023-02-07T06:34:08;-1.30;91.00
62581;DHT22;48640;48.770;9.148;2023-02-07T06:36:35;-1.40;91.00
62581;DHT22;48640;48.770;9.148;2023-02-07T06:39:03;-1.40;90.80
62581;DHT22;48640;48.770;9.148;2023-02-07T06:41:30;-1.40;90.80
62581;DHT22;48640;48.770;9.148;2023-02-07T06:43:57;-1.40;90.80
62581;DHT22;48640;48.770;9.148;2023-02-07T06:46:24;-1.40;91.00
62581;DHT22;48640;48.770;9.148;2023-02-07T06:48:51;-1.50;91.00
62581;DHT22;48640;48.770;9.148;2023-02-07T06:51:18;-1.40;90.90
62581;DHT22;48640;48.770;9.148;2023-02-07T06:53:44;-1.40;91.00
62581;DHT22;48640;48.770;9.148;2023-02-07T06:56:12;-1.40;91.10
62581;DHT22;48640;48.770;9.148;2023-02-07T06:58:40;-1.40;91.10
62581;DHT22;48640;48.770;9.148;2023-02-07T07:01:07;-1.30;91.00
62581;DHT22;48640;48.770;9.148;2023-02-07T07:03:34;-1.30;91.00
62581;DHT22;48640;48.770;9.148;2023-02-07T07:06:00;-1.40;90.90
62581;DHT22;48640;48.770;9.148;2023-02-07T07:08:27;-1.30;91.10
62581;DHT22;48640;48.770;9.148;2023-02-07T07:10:55;-1.20;90.70
62581;DHT22;48640;48.770;9.148;2023-02-07T07:13:23;-1.30;90.50
62581;DHT22;48640;48.770;9.148;2023-02-07T07:15:50;-1.30;90.60
62581;DHT22;48640;48.770;9.148;2023-02-07T07:18:17;-1.30;90.70
62581;DHT22;48640;48.770;9.148;2023-02-07T07:20:44;-1.30;90.60
62581;DHT22;48640;48.770;9.148;2023-02-07T07:23:10;-1.30;90.50
62581;DHT22;48640;48.770;9.148;2023-02-07T07:25:37;-1.20;90.50
62581;DHT22;48640;48.770;9.148;2023-02-07T07:28:04;-1.20;90.30
62581;DHT22;48640;48.770;9.148;2023-02-07T07:30:32;-1.20;90.40
62581;DHT22;48640;48.770;9.148;2023-02-07T07:32:59;-1.00;90.50
62581;DHT22;48640;48.770;9.148;2023-02-07T07:35:26;-0.90;90.50
62581;DHT22;48640;48.770;9.148;2023-02-07T07:37:53;-0.80;90.70
62581;DHT22;48640;48.770;9.148;2023-02-07T07:40:20;-0.70;90.70
62581;DHT22;48640;48.770;9.148;2023-02-07T07:42:47;-0.80;90.80
62581;DHT22;48640;48.770;9.148;2023-02-07T07:45:14;-0.80;91.00
62581;DHT22;48640;48.770;9.148;2023-02-07T07:47:42;-0.90;90.60
62581;DHT22;48640;48.770;9.148;2023-02-07T07:50:09;-0.90;90.80
62581;DHT22;48640;48.770;9.148;2023-02-07T07:52:35;-0.90;90.70
62581;DHT22;48640;48.770;9.148;2023-02-07T07:55:02;-0.70;90.50
62581;DHT22;48640;48.770;9.148;2023-02-07T07:57:29;-0.80;90.50
62581;DHT22;48640;48.770;9.148;2023-02-07T07:59:56;-0.90;90.40
62581;DHT22;48640;48.770;9.148;2023-02-07T08:02:23;-0.90;90.30
62581;DHT22;48640;48.770;9.148;2023-02-07T08:04:51;-0.90;90.90
62581;DHT22;48640;48.770;9.148;2023-02-07T08:07:18;-0.90;90.70
62581;DHT22;48640;48.770;9.148;2023-02-07T08:09:45;-0.90;90.90
62581;DHT22;48640;48.770;9.148;2023-02-07T08:12:12;-0.80;91.10
62581;DHT22;48640;48.770;9.148;2023-02-07T08:14:38;-0.80;90.60
62581;DHT22;48640;48.770;9.148;2023-02-07T08:17:05;-0.70;90.30
62581;DHT22;48640;48.770;9.148;2023-02-07T08:19:32;-0.70;90.50
62581;DHT22;48640;48.770;9.148;2023-02-07T08:22:00;-0.70;90.40
62581;DHT22;48640;48.770;9.148;2023-02-07T08:24:27;-0.70;90.00
62581;DHT22;48640;48.770;9.148;2023-02-07T08:26:54;-0.70;90.10
62581;DHT22;48640;48.770;9.148;2023-02-07T08:29:21;-0.70;90.60
62581;DHT22;48640;48.770;9.148;2023-02-07T08:31:48;-0.50;90.90
62581;DHT22;48640;48.770;9.148;2023-02-07T08:34:14;-0.50;90.40
62581;DHT22;48640;48.770;9.148;2023-02-07T08:36:43;-0.40;90.40
62581;DHT22;48640;48.770;9.148;2023-02-07T08:39:11;-0.60;88.80
62581;DHT22;48640;48.770;9.148;2023-02-07T08:41:38;-0.70;89.80
62581;DHT22;48640;48.770;9.148;2023-02-07T08:44:04;-0.70;90.40
62581;DHT22;48640;48.770;9.148;2023-02-07T08:46:31;-0.60;90.40
62581;DHT22;48640;48.770;9.148;2023-02-07T08:48:58;-0.60;90.30
62581;DHT22;48640;48.770;9.148;2023-02-07T08:51:25;-0.70;90.10
62581;DHT22;48640;48.770;9.148;2023-02-07T08:53:52;-0.70;90.40
62581;DHT22;48640;48.770;9.148;2023-02-07T08:56:20;-0.60;90.30
62581;DHT22;48640;48.770;9.148;2023-02-07T08:58:47;-0.70;89.90
62581;DHT22;48640;48.770;9.148;2023-02-07T09:01:13;-0.70;90.00
62581;DHT22;48640;48.770;9.148;2023-02-07T09:03:41;-0.70;90.00
62581;DHT22;48640;48.770;9.148;2023-02-07T09:06:07;-0.70;90.10
62581;DHT22;48640;48.770;9.148;2023-02-07T09:08:35;-0.80;89.50
62581;DHT22;48640;48.770;9.148;2023-02-07T09:11:01;-0.70;90.00
62581;DHT22;48640;48.770;9.148;2023-02-07T09:13:30;-0.60;90.10
62581;DHT22;48640;48.770;9.148;2023-02-07T09:15:57;-0.60;89.80
62581;DHT22;48640;48.770;9.148;2023-02-07T09:18:25;-0.60;89.70
62581;DHT22;48640;48.770;9.148;2023-02-07T09:20:52;-0.50;89.90
62581;DHT22;48640;48.770;9.148;2023-02-07T09:23:19;-0.50;90.00
62581;DHT22;48640;48.770;9.148;2023-02-07T09:25:51;-0.30;89.40
62581;DHT22;48640;48.770;9.148;2023-02-07T09:28:19;-0.40;89.10
62581;DHT22;48640;48.770;9.148;2023-02-07T09:30:48;-0.40;88.60
62581;DHT22;48640;48.770;9.148;2023-02-07T09:33:15;-0.30;89.70
62581;DHT22;48640;48.770;9.148;2023-02-07T09:35:44;-0.10;89.80
62581;DHT22;48640;48.770;9.148;2023-02-07T09:38:13;-0.30;87.10
62581;DHT22;48640;48.770;9.148;2023-02-07T09:40:40;-0.20;88.70
62581;DHT22;48640;48.770;9.148;2023-02-07T09:43:13;-0.20;88.30
62581;DHT22;48640;48.770;9.148;2023-02-07T09:45:44;0.00;88.30
62581;DHT22;48640;48.770;9.148;2023-02-07T09:48:16;0.10;87.80
62581;DHT22;48640;48.770;9.148;2023-02-07T09:50:49;0.10;86.70
62581;DHT22;48640;48.770;9.148;2023-02-07T09:53:21;0.10;86.60
62581;DHT22;48640;48.770;9.148;2023-02-07T09:55:52;0.10;86.80
62581;DHT22;48640;48.770;9.148;2023-02-07T09:58:26;0.10;86.50
62581;DHT22;48640;48.770;9.148;2023-02-07T10:01:00;0.20;86.50
62581;DHT22;48640;48.770;9.148;2023-02-07T10:03:30;0.20;86.10
62581;DHT22;48640;48.770;9.148;2023-02-07T10:06:03;0.20;86.10
62581;DHT22;48640;48.770;9.148;2023-02-07T10:08:30;0.30;86.30
62581;DHT22;48640;48.770;9.148;2023-02-07T10:11:07;0.10;85.20
62581;DHT22;48640;48.770;9.148;2023-02-07T10:13:50;0.00;85.90
62581;DHT22;48640;48.770;9.148;2023-02-07T10:16:35;0.20;86.40
62581;DHT22;48640;48.770;9.148;2023-02-07T10:19:16;0.30;87.10
62581;DHT22;48640;48.770;9.148;2023-02-07T10:21:52;0.40;86.30
62581;DHT22;48640;48.770;9.148;2023-02-07T10:24:37;0.40;85.40
62581;DHT22;48640;48.770;9.148;2023-02-07T10:27:12;0.60;86.00
62581;DHT22;48640;48.770;9.148;2023-02-07T10:29:47;0.60;85.40
62581;DHT22;48640;48.770;9.148;2023-02-07T10:32:20;0.60;85.00
62581;DHT22;48640;48.770;9.148;2023-02-07T10:34:52;0.80;85.40
62581;DHT22;48640;48.770;9.148;2023-02-07T10:37:22;0.80;85.00
62581;DHT22;48640;48.770;9.148;2023-02-07T10:39:56;0.90;84.10
62581;DHT22;48640;48.770;9.148;2023-02-07T10:42:26;1.20;83.60
62581;DHT22;48640;48.770;9.148;2023-02-07T10:44:54;1.10;81.80
62581;DHT22;48640;48.770;9.148;2023-02-07T10:47:21;1.10;82.20
62581;DHT22;48640;48.770;9.148;2023-02-07T10:49:52;1.10;82.30
62581;DHT22;48640;48.770;9.148;2023-02-07T10:52:26;1.20;82.80
62581;DHT22;48640;48.770;9.148;2023-02-07T10:54:56;1.30;81.80
62581;DHT22;48640;48.770;9.148;2023-02-07T10:57:24;1.40;82.00
62581;DHT22;48640;48.770;9.148;2023-02-07T10:59:59;1.40;81.30
62581;DHT22;48640;48.770;9.148;2023-02-07T11:02:46;1.50;80.70
62581;DHT22;48640;48.770;9.148;2023-02-07T11:05:35;1.60;80.90
62581;DHT22;48640;48.770;9.148;2023-02-07T11:08:05;1.80;79.60
62581;DHT22;48640;48.770;9.148;2023-02-07T11:10:35;1.80;78.80
62581;DHT22;48640;48.770;9.148;2023-02-07T11:13:03;1.80;78.60
62581;DHT22;48640;48.770;9.148;2023-02-07T11:15:44;2.00;79.20
62581;DHT22;48640;48.770;9.148;2023-02-07T11:18:26;2.00;79.40
62581;DHT22;48640;48.770;9.148;2023-02-07T11:20:55;1.80;79.00
62581;DHT22;48640;48.770;9.148;2023-02-07T11:23:22;1.90;80.30
62581;DHT22;48640;48.770;9.148;2023-02-07T11:25:53;2.00;80.20
62581;DHT22;48640;48.770;9.148;2023-02-07T11:28:22;1.90;79.40
62581;DHT22;48640;48.770;9.148;2023-02-07T11:30:52;1.90;79.70
62581;DHT22;48640;48.770;9.148;2023-02-07T11:33:25;1.90;80.40
62581;DHT22;48640;48.770;9.148;2023-02-07T11:36:21;2.00;80.30
62581;DHT22;48640;48.770;9.148;2023-02-07T11:38:49;2.00;79.50
62581;DHT22;48640;48.770;9.148;2023-02-07T11:41:20;2.00;78.40
62581;DHT22;48640;48.770;9.148;2023-02-07T11:43:55;2.00;77.90
62581;DHT22;48640;48.770;9.148;2023-02-07T11:46:28;2.00;78.40
62581;DHT22;48640;48.770;9.148;2023-02-07T11:48:57;1.90;77.00
62581;DHT22;48640;48.770;9.148;2023-02-07T11:51:25;2.00;78.00
62581;DHT22;48640;48.770;9.148;2023-02-07T11:53:55;2.00;78.80
62581;DHT22;48640;48.770;9.148;2023-02-07T11:56:29;2.10;78.90
62581;DHT22;48640;48.770;9.148;2023-02-07T11:58:57;2.20;78.10
62581;DHT22;48640;48.770;9.148;2023-02-07T12:01:26;2.20;77.40
62581;DHT22;48640;48.770;9.148;2023-02-07T12:03:56;2.30;77.50
62581;DHT22;48640;48.770;9.148;2023-02-07T12:06:32;2.30;76.70
62581;DHT22;48640;48.770;9.148;2023-02-07T12:09:01;2.30;77.20
62581;DHT22;48640;48.770;9.148;2023-02-07T12:11:34;2.30;78.10
62581;DHT22;48640;48.770;9.148;2023-02-07T12:14:09;2.30;77.80
62581;DHT22;48640;48.770;9.148;2023-02-07T12:16:43;2.40;76.60
62581;DHT22;48640;48.770;9.148;2023-02-07T12:19:16;2.30;76.00
62581;DHT22;48640;48.770;9.148;2023-02-07T12:21:53;2.40;76.20
62581;DHT22;48640;48.770;9.148;2023-02-07T12:24:26;2.30;74.60
62581;DHT22;48640;48.770;9.148;2023-02-07T12:26:58;2.40;75.50
62581;DHT22;48640;48.770;9.148;2023-02-07T12:29:38;2.60;75.00
62581;DHT22;48640;48.770;9.148;2023-02-07T12:32:12;2.50;75.10
62581;DHT22;48640;48.770;9.148;2023-02-07T12:34:47;2.70;76.10
62581;DHT22;48640;48.770;9.148;2023-02-07T12:37:24;2.70;75.60
62581;DHT22;48640;48.770;9.148;2023-02-07T12:39:57;2.90;75.20
62581;DHT22;48640;48.770;9.148;2023-02-07T12:42:32;3.10;74.60
62581;DHT22;48640;48.770;9.148;2023-02-07T12:45:03;3.30;74.40
62581;DHT22;48640;48.770;9.148;2023-02-07T12:47:41;3.60;74.40
62581;DHT22;48640;48.770;9.148;2023-02-07T12:50:20;3.80;72.40
62581;DHT22;48640;48.770;9.148;2023-02-07T12:53:00;3.80;70.60
62581;DHT22;48640;48.770;9.148;2023-02-07T12:55:39;3.90;70.40
62581;DHT22;48640;48.770;9.148;2023-02-07T12:58:17;4.20;70.20
62581;DHT22;48640;48.770;9.148;2023-02-07T13:00:54;4.50;69.00
62581;DHT22;48640;48.770;9.148;2023-02-07T13:03:35;5.10;67.30
62581;DHT22;48640;48.770;9.148;2023-02-07T13:06:10;5.60;64.80
62581;DHT22;48640;48.770;9.148;2023-02-07T13:08:51;5.80;62.70
62581;DHT22;48640;48.770;9.148;2023-02-07T13:11:28;6.10;60.90
62581;DHT22;48640;48.770;9.148;2023-02-07T13:14:11;4.90;58.30
62581;DHT22;48640;48.770;9.148;2023-02-07T13:16:45;5.30;59.20
62581;DHT22;48640;48.770;9.148;2023-02-07T13:19:19;5.80;59.20
62581;DHT22;48640;48.770;9.148;2023-02-07T13:21:52;5.40;58.50
62581;DHT22;48640;48.770;9.148;2023-02-07T13:24:23;5.10;58.90
62581;DHT22;48640;48.770;9.148;2023-02-07T13:26:53;5.30;59.80
62581;DHT22;48640;48.770;9.148;2023-02-07T13:29:22;5.30;59.00
62581;DHT22;48640;48.770;9.148;2023-02-07T13:31:52;5.60;56.80
62581;DHT22;48640;48.770;9.148;2023-02-07T13:34:20;5.60;55.30
62581;DHT22;48640;48.770;9.148;2023-02-07T13:36:49;5.10;54.90
62581;DHT22;48640;48.770;9.148;2023-02-07T13:39:32;5.20;55.70
62581;DHT22;48640;48.770;9.148;2023-02-07T13:42:14;5.60;55.90
62581;DHT22;48640;48.770;9.148;2023-02-07T13:44:48;5.70;54.60
62581;DHT22;48640;48.770;9.148;2023-02-07T13:47:41;5.70;54.50
62581;DHT22;48640;48.770;9.148;2023-02-07T13:50:17;5.80;54.50
62581;DHT22;48640;48.770;9.148;2023-02-07T13:52:53;5.70;54.50
62581;DHT22;48640;48.770;9.148;2023-02-07T13:55:29;5.90;55.00
62581;DHT22;48640;48.770;9.148;2023-02-07T13:57:57;5.80;55.50
62581;DHT22;48640;48.770;9.148;2023-02-07T14:01:06;5.50;54.90
62581;DHT22;48640;48.770;9.148;2023-02-07T14:03:34;5.50;55.60
62581;DHT22;48640;48.770;9.148;2023-02-07T14:06:20;5.50;55.40
62581;DHT22;48640;48.770;9.148;2023-02-07T14:08:57;5.40;55.20
62581;DHT22;48640;48.770;9.148;2023-02-07T14:11:34;5.60;56.20
62581;DHT22;48640;48.770;9.148;2023-02-07T14:14:12;6.00;55.50
62581;DHT22;48640;48.770;9.148;2023-02-07T14:16:46;6.20;55.70
62581;DHT22;48640;48.770;9.148;2023-02-07T14:19:13;6.20;55.70
62581;DHT22;48640;48.770;9.148;2023-02-07T14:21:43;5.70;53.80
62581;DHT22;48640;48.770;9.148;2023-02-07T14:24:20;5.80;54.70
62581;DHT22;48640;48.770;9.148;2023-02-07T14:27:04;5.60;54.40
62581;DHT22;48640;48.770;9.148;2023-02-07T14:30:11;5.20;54.90
62581;DHT22;48640;48.770;9.148;2023-02-07T14:32:41;5.00;55.40
62581;DHT22;48640;48.770;9.148;2023-02-07T14:35:30;5.00;55.20
62581;DHT22;48640;48.770;9.148;2023-02-07T14:38:19;4.80;55.00
62581;DHT22;48640;48.770;9.148;2023-02-07T14:40:52;4.70;55.70
62581;DHT22;48640;48.770;9.148;2023-02-07T14:43:28;4.70;57.00
62581;DHT22;48640;48.770;9.148;2023-02-07T14:46:02;4.80;56.60
62581;DHT22;48640;48.770;9.148;2023-02-07T14:48:37;4.40;55.80
62581;DHT22;48640;48.770;9.148;2023-02-07T14:51:10;4.30;56.20
62581;DHT22;48640;48.770;9.148;2023-02-07T14:53:38;4.20;56.00
62581;DHT22;48640;48.770;9.148;2023-02-07T14:56:06;4.10;56.50
62581;DHT22;48640;48.770;9.148;2023-02-07T14:58:42;4.00;57.00
62581;DHT22;48640;48.770;9.148;2023-02-07T15:01:11;4.00;56.10
62581;DHT22;48640;48.770;9.148;2023-02-07T15:03:38;3.90;56.50
62581;DHT22;48640;48.770;9.148;2023-02-07T15:06:16;3.90;56.70
62581;DHT22;48640;48.770;9.148;2023-02-07T15:08:54;3.90;56.70
62581;DHT22;48640;48.770;9.148;2023-02-07T15:11:22;3.90;56.00
62581;DHT22;48640;48.770;9.148;2023-02-07T15:13:54;3.80;56.10
62581;DHT22;48640;48.770;9.148;2023-02-07T15:16:23;3.90;56.20
62581;DHT22;48640;48.770;9.148;2023-02-07T15:18:53;3.80;56.10
62581;DHT22;48640;48.770;9.148;2023-02-07T15:21:22;3.80;56.00
62581;DHT22;48640;48.770;9.148;2023-02-07T15:23:56;3.80;55.90
62581;DHT22;48640;48.770;9.148;2023-02-07T15:26:23;3.70;56.70
62581;DHT22;48640;48.770;9.148;2023-02-07T15:28:57;3.80;56.90
62581;DHT22;48640;48.770;9.148;2023-02-07T15:31:25;3.80;57.60
62581;DHT22;48640;48.770;9.148;2023-02-07T15:33:54;3.80;56.40
62581;DHT22;48640;48.770;9.148;2023-02-07T15:36:31;3.70;56.50
62581;DHT22;48640;48.770;9.148;2023-02-07T15:39:00;3.70;56.30
62581;DHT22;48640;48.770;9.148;2023-02-07T15:41:28;3.60;56.60
62581;DHT22;48640;48.770;9.148;2023-02-07T15:43:58;3.70;56.40
62581;DHT22;48640;48.770;9.148;2023-02-07T15:46:25;3.60;57.30
62581;DHT22;48640;48.770;9.148;2023-02-07T15:48:53;3.50;57.10
62581;DHT22;48640;48.770;9.148;2023-02-07T15:51:22;3.50;56.50
62581;DHT22;48640;48.770;9.148;2023-02-07T15:53:53;3.50;56.60
62581;DHT22;48640;48.770;9.148;2023-02-07T15:56:20;3.50;56.70
62581;DHT22;48640;48.770;9.148;2023-02-07T15:58:47;3.50;57.00
62581;DHT22;48640;48.770;9.148;2023-02-07T16:01:21;3.50;57.50
62581;DHT22;48640;48.770;9.148;2023-02-07T16:03:48;3.50;57.00